Flight Track Log - Related Links

Times and Time Zones

All times are in EDT time to prevent confusion due to time zone crossing. See the SWA539 flight status page for this flight to view local times or setup timezone preferences in your user account.

Time Position Orientation Groundspeed Altitude Reporting Facility
EDT Latitude Longitude Course Direction KTS MPH feet Rate Location/Type
Sat 08:51:20 PM 41.7914 -87.5647 95° East 246 283 7,400  Level Chicago Center
Sat 08:52:22 PM 41.7858 -87.4583 94° East 286 329 11,000 3,268 Climbing Chicago Center
Sat 08:53:23 PM 41.7789 -87.3383 94° East 320 368 14,100 3,049 Climbing Chicago Center
Sat 08:54:24 PM 41.7708 -87.2122 95° East 338 389 17,200 2,459 Climbing Chicago Center
Sat 08:55:00 PM 41.7500 -86.9785 90° East  Level FlightAware Approximate
Sat 08:55:25 PM 41.7614 -87.0667 95° East 388 447 19,100  Level Chicago Center
Sat 08:56:26 PM 41.7631 -86.9144 89° East 409 471 21,700 2,341 Climbing Chicago Center
Sat 08:57:28 PM 41.7658 -86.7536 89° East 432 497 23,900 2,244 Climbing Chicago Center
Sat 08:58:29 PM 41.7658 -86.5639 90° East 455 524 26,300 2,066 Climbing Chicago Center
Sat 08:59:30 PM 41.7678 -86.3867 89° East 474 545 28,100 1,805 Climbing Chicago Center
Sat 09:00:32 PM 41.7692 -86.2044 89° East 488 562 30,000 1,756 Climbing Chicago Center
Sat 09:01:33 PM 41.7719 -86.0167 89° East 503 579 31,700 1,820 Climbing Chicago Center
Sat 09:02:34 PM 41.7733 -85.8272 89° East 508 585 33,700 1,623 Climbing Chicago Center
Sat 09:03:35 PM 41.7756 -85.6394 89° East 503 579 35,000 639 Climbing Chicago Center
Sat 09:04:36 PM 41.7769 -85.4467 89° East 508 585 35,000  Level Chicago Center
Sat 09:05:38 PM 41.7781 -85.2533 89° East 507 583 35,000  Level Chicago Center
Sat 09:06:39 PM 41.7786 -85.0644 90° East 501 577 35,000  Level Chicago Center
Sat 09:07:40 PM 41.7781 -84.8767 90° East 502 578 35,000  Level Chicago Center
Sat 09:08:42 PM 41.7478 -84.6944 102° East 501 577 35,000  Level Chicago Center
Sat 09:09:45 PM 41.7075 -84.4997 105° East 493 567 35,000  Level Cleveland Center
Sat 09:10:45 PM 41.6697 -84.3222 106° East 498 573 35,000  Level Cleveland Center
Sat 09:11:45 PM 41.6253 -84.1419 108° East 503 579 35,000  Level Cleveland Center
Sat 09:12:45 PM 41.5867 -83.9675 106° East 503 579 35,000  Level Cleveland Center
Sat 09:13:45 PM 41.5461 -83.7878 107° East 503 579 35,000  Level Cleveland Center
Sat 09:14:45 PM 41.5072 -83.6111 106° East 503 579 35,000  Level Cleveland Center
Sat 09:15:45 PM 41.4678 -83.4347 107° East 498 573 35,000  Level Cleveland Center
Sat 09:16:45 PM 41.4283 -83.2611 107° East 498 573 35,000  Level Cleveland Center
Sat 09:17:45 PM 41.3867 -83.0714 106° East 491 565 35,000  Level Cleveland Center
Sat 09:18:45 PM 41.3444 -82.8953 108° East 486 559 35,000  Level Cleveland Center
Sat 09:19:45 PM 41.3100 -82.7447 107° East 486 559 35,000  Level Cleveland Center
Sat 09:20:45 PM 41.2694 -82.5722 107° East 486 559 35,000  Level Cleveland Center
Sat 09:21:45 PM 41.2283 -82.3969 107° East 486 559 35,000  Level Cleveland Center
Sat 09:22:45 PM 41.1875 -82.2164 107° East 492 566 35,000  Level Cleveland Center
Sat 09:23:45 PM 41.1442 -82.0225 106° East 497 572 35,000  Level Cleveland Center
Sat 09:24:45 PM 41.1003 -81.8617 110° East 502 578 35,000  Level Cleveland Center
Sat 09:25:45 PM 41.0561 -81.6844 108° East 507 583 35,000  Level Cleveland Center
Sat 09:26:45 PM 41.0139 -81.5106 108° East 507 583 35,000  Level Cleveland Center
Sat 09:27:45 PM 40.9694 -81.3311 108° East 507 583 35,000  Level Cleveland Center
Sat 09:28:45 PM 40.9267 -81.1575 108° East 502 578 35,000  Level Cleveland Center
Sat 09:29:45 PM 40.8794 -80.9594 107° East 502 578 35,000  Level Cleveland Center
Sat 09:30:45 PM 40.8361 -80.7861 108° East 502 578 35,000  Level Cleveland Center
Sat 09:31:45 PM 40.7925 -80.6297 110° East 502 578 35,000  Level Cleveland Center
Sat 09:32:45 PM 40.7425 -80.4378 109° East 502 578 35,000  Level Cleveland Center
Sat 09:33:45 PM 40.6983 -80.2656 109° East 502 578 35,000  Level Cleveland Center
Sat 09:34:45 PM 40.6269 -80.1208 123° Southeast 469 540 35,000 -200 Level Cleveland Center
Sat 09:35:45 PM 40.5328 -80.0122 139° Southeast 461 531 34,600 -700 Descending Cleveland Center
Sat 09:36:45 PM 40.4528 -79.8872 130° Southeast 452 520 33,600 -900 Descending Cleveland Center
Sat 09:37:45 PM 40.4267 -79.7322 102° East 447 514 32,800 -850 Descending Cleveland Center
Sat 09:38:45 PM 40.4064 -79.5497 98° East 468 539 31,900 -900 Descending Cleveland Center
Sat 09:39:45 PM 40.3983 -79.3644 93° East 487 560 31,000 -450 Descending Cleveland Center
Sat 09:40:45 PM 40.3856 -79.1603 95° East 500 575 31,000  Level Cleveland Center
Sat 09:41:45 PM 40.3747 -78.9778 94° East 500 575 31,000  Level Cleveland Center
Sat 09:42:45 PM 40.3639 -78.7956 94° East 500 575 31,000  Level Cleveland Center
Sat 09:43:45 PM 40.3525 -78.6133 95° East 500 575 31,000 -100 Level Cleveland Center
Sat 09:44:45 PM 40.3408 -78.4339 95° East 500 575 30,800 -1,412 Descending Cleveland Center
Sat 09:46:35 PM 40.3208 -78.1139 95° East 512 589 27,000 -2,047 Descending New York Center
Sat 09:47:35 PM 40.3131 -77.9358 93° East 507 583 25,000 -1,008 Descending New York Center
Sat 09:48:34 PM 40.3094 -77.7503 91° East 502 578 25,000 -555 Level New York Center
Sat 09:49:34 PM 40.3094 -77.5706 90° East 502 578 23,900 -992 Descending New York Center
Sat 09:50:35 PM 40.3067 -77.3989 91° East 489 563 23,000 -446 Descending New York Center
Sat 09:51:35 PM 40.3017 -77.2294 92° East 481 554 23,000 -200 Level New York Center
Sat 09:52:35 PM 40.2961 -77.0575 92° East 469 540 22,600 -689 Descending New York Center
Sat 09:53:37 PM 40.2608 -76.8992 106° East 457 526 21,600 -1,000 Descending New York Center
Sat 09:54:35 PM 40.2247 -76.7492 107° East 444 511 20,600 -1,513 Descending New York Center
Sat 09:55:36 PM 40.1892 -76.5831 106° East 439 505 18,600 -1,916 Descending New York Center
Sat 09:56:34 PM 40.1578 -76.4556 108° East 418 481 16,800 -1,648 Descending New York Center
Sat 09:57:07 PM 40.1361 -76.3575 106° East 407 468 16,100 -1,132 Descending FAA TRACON SMA TRACON (SMA)
Sat 09:57:27 PM 40.1253 -76.3119 107° East 407 468 15,800 -900 Descending FAA TRACON SMA TRACON (SMA)
Sat 09:57:47 PM 40.1172 -76.2678 103° East 407 468 15,500 -900 Descending FAA TRACON SMA TRACON (SMA)
Sat 09:58:07 PM 40.1153 -76.2219 93° East 415 478 15,200 -1,050 Descending FAA TRACON SMA TRACON (SMA)
Sat 09:58:27 PM 40.1117 -76.1653 95° East 407 468 14,800 -1,050 Descending FAA TRACON SMA TRACON (SMA)
Sat 09:58:47 PM 40.1083 -76.1206 96° East 404 465 14,500 -1,050 Descending FAA TRACON SMA TRACON (SMA)
Sat 09:59:07 PM 40.1042 -76.0647 96° East 402 463 14,100 -1,200 Descending FAA TRACON SMA TRACON (SMA)
Sat 09:59:27 PM 40.1014 -76.0203 95° East 401 461 13,700 -1,350 Descending FAA TRACON SMA TRACON (SMA)
Sat 09:59:47 PM 40.0983 -75.9764 95° East 398 458 13,200 -1,650 Descending FAA TRACON SMA TRACON (SMA)
Sat 10:00:07 PM 40.0953 -75.9333 95° East 393 452 12,600 -2,049 Descending FAA TRACON SMA TRACON (SMA)
Sat 10:00:28 PM 40.0917 -75.8828 95° East 388 447 11,800 -2,250 Descending FAA TRACON SMA TRACON (SMA)
Sat 10:00:47 PM 40.0883 -75.8369 95° East 387 445 11,100 -2,100 Descending FAA TRACON SMA TRACON (SMA)
Sat 10:01:08 PM 40.0842 -75.7836 96° East 385 443 10,400 -1,610 Descending FAA TRACON SMA TRACON (SMA)
Sat 10:01:28 PM 40.0811 -75.7417 95° East 382 440 10,000 -615 Descending FAA TRACON SMA TRACON (SMA)
Sat 10:01:47 PM 40.0794 -75.7022 93° East 359 413 10,000 -300 Level FAA TRACON SMA TRACON (SMA)
Sat 10:02:08 PM 40.0814 -75.6575 87° East 324 373 9,800 -750 Descending FAA TRACON SMA TRACON (SMA)
Sat 10:02:27 PM 40.0922 -75.6242 67° East 313 360 9,500 -923 Descending FAA TRACON SMA TRACON (SMA)
Sat 10:02:47 PM 40.1039 -75.5944 63° Northeast 300 345 9,200 -900 Descending FAA TRACON SMA TRACON (SMA)
Sat 10:03:07 PM 40.1153 -75.5650 63° Northeast 296 341 8,900 -1,500 Descending FAA TRACON SMA TRACON (SMA)
Sat 10:03:27 PM 40.1292 -75.5283 64° Northeast 293 337 8,200 -1,650 Descending FAA TRACON SMA TRACON (SMA)
Sat 10:03:47 PM 40.1322 -75.4956 83° East 303 349 7,800 -1,200 Descending FAA TRACON SMA TRACON (SMA)
Sat 10:04:07 PM 40.1283 -75.4644 99° East 296 341 7,400 -1,650 Descending FAA TRACON SMA TRACON (SMA)
Sat 10:04:27 PM 40.1231 -75.4214 99° East 297 342 6,700 -1,650 Descending FAA TRACON SMA TRACON (SMA)
Sat 10:04:47 PM 40.1197 -75.3883 98° East 297 342 6,300 -1,050 Descending FAA TRACON SMA TRACON (SMA)
Sat 10:05:07 PM 40.1161 -75.3553 98° East 298 343 6,000 -900 Descending FAA TRACON SMA TRACON (SMA)
Sat 10:05:27 PM 40.1119 -75.3153 98° East 294 338 5,700 -1,050 Descending FAA TRACON SMA TRACON (SMA)
Sat 10:05:47 PM 40.1081 -75.2817 99° East 296 341 5,300 -1,050 Descending FAA TRACON SMA TRACON (SMA)
Sat 10:06:07 PM 40.1047 -75.2500 98° East 293 337 5,000 -450 Descending FAA TRACON SMA TRACON (SMA)
Sat 10:06:27 PM 40.0992 -75.2108 100° East 282 325 5,000  Level FAA TRACON SMA TRACON (SMA)
Sat 10:06:47 PM 40.0956 -75.1833 100° East 254 292 5,000 -293 Level FAA TRACON SMA TRACON (SMA)
Sat 10:07:08 PM 40.0917 -75.1547 100° East 255 293 4,800 -750 Descending FAA TRACON SMA TRACON (SMA)
Sat 10:07:27 PM 40.0881 -75.1278 100° East 246 283 4,500 -1,050 Descending FAA TRACON SMA TRACON (SMA)
Sat 10:07:48 PM 40.0836 -75.0942 100° East 244 281 4,100 -750 Descending FAA TRACON SMA TRACON (SMA)
Sat 10:08:07 PM 40.0758 -75.0700 113° Southeast 240 276 4,000 -154 Descending FAA TRACON SMA TRACON (SMA)
Sat 10:08:27 PM 40.0606 -75.0508 136° Southeast 257 296 4,000  Level FAA TRACON SMA TRACON (SMA)
Sat 10:08:47 PM 40.0422 -75.0272 135° Southeast 238 274 4,000  Level FAA TRACON SMA TRACON (SMA)
Sat 10:09:07 PM 40.0281 -75.0100 137° Southeast 228 262 4,000  Level FAA TRACON SMA TRACON (SMA)
Sat 10:09:27 PM 40.0114 -75.0006 157° South 221 254 4,000  Level FAA TRACON SMA TRACON (SMA)
Sat 10:09:47 PM 39.9900 -74.9967 172° South 213 245 4,000 -300 Level FAA TRACON SMA TRACON (SMA)
Sat 10:10:07 PM 39.9719 -74.9981 183° South 194 223 3,800 -750 Descending FAA TRACON SMA TRACON (SMA)
Sat 10:10:27 PM 39.9561 -75.0017 190° South 190 219 3,500 -1,050 Descending FAA TRACON SMA TRACON (SMA)
Sat 10:10:47 PM 39.9383 -75.0125 205° Southwest 181 208 3,100 -1,050 Descending FAA TRACON SMA TRACON (SMA)
Sat 10:11:07 PM 39.9250 -75.0222 209° Southwest 186 214 2,800 -900 Descending FAA TRACON SMA TRACON (SMA)
Sat 10:11:27 PM 39.9144 -75.0356 224° Southwest 174 200 2,500 -1,050 Descending FAA TRACON SMA TRACON (SMA)
Sat 10:11:47 PM 39.9083 -75.0558 249° West 167 192 2,100 -585 Descending FAA TRACON SMA TRACON (SMA)
Sat 10:12:08 PM 39.9050 -75.0736 256° West 158 182 2,100  Level FAA TRACON SMA TRACON (SMA)
Sat 10:12:27 PM 39.9025 -75.0889 258° West 158 182 2,100 -450 Level FAA TRACON SMA TRACON (SMA)
Sat 10:12:48 PM 39.8975 -75.1106 253° West 151 174 1,800 -900 Descending FAA TRACON SMA TRACON (SMA)
Sat 10:13:07 PM 39.8939 -75.1272 254° West 148 170 1,500 -769 Descending FAA TRACON SMA TRACON (SMA)
Sat 10:13:27 PM 39.8919 -75.1408 259° West 137 158 1,300 -600 Descending FAA TRACON SMA TRACON (SMA)
Sat 10:13:47 PM 39.8886 -75.1586 256° West 127 146 1,100 -750 Descending FAA TRACON SMA TRACON (SMA)
Sat 10:14:07 PM 39.8853 -75.1714 251° West 124 143 800 -750 Descending FAA TRACON SMA TRACON (SMA)
Sat 10:14:27 PM 39.8828 -75.1847 256° West 124 143 600 -750 Descending FAA TRACON SMA TRACON (SMA)
Sat 10:14:47 PM 39.8794 -75.2017 256° West 126 145 300 -750 Descending FAA TRACON SMA TRACON (SMA)
Sat 10:15:07 PM 39.8769 -75.2156 257° West 127 146 100 -600 Descending FAA TRACON SMA TRACON (SMA)
Sat 10:17:00 PM 39.8667 -75.2333 270° West  Level FlightAware Approximate

Login

Don't have an account? Register now (free) for customized features, flight alerts, and more!